Temperatura si umiditatea in Oradea

<< Octombrie 2018 >>
L M Mi J V S D
1 2 3 4 5 6 7
8 9 10 11 12 13 14
15 16 17 18 19 20 21
22 23 24 25 26 27 28
29 30 31        

Temperatura si umiditatea in Oradea la data de 23.10.2018
Ora Temperatura Umiditatea Presiunea
00:00 11.1 °C (11.1) 80 % 1.023 bar
00:30 10.6 °C (10.6) 78 % 1.024 bar
01:00 10.6 °C (10.6) 77 % 1.023 bar
01:30 10.6 °C (10.6) 78 % 1.023 bar
02:00 10.0 °C (10.0) 78 % 1.023 bar
02:30 10.6 °C (10.6) 78 % 1.024 bar
03:00 10.0 °C (10.0) 77 % 1.023 bar
03:30 10.0 °C (10.0) 77 % 1.023 bar
04:00 10.0 °C (10.0) 75 % 1.022 bar
04:30 10.0 °C (10.0) 75 % 1.022 bar
05:00 10.0 °C (10.0) 77 % 1.022 bar
05:30 10.0 °C (10.0) 77 % 1.022 bar
06:00 10.0 °C (10.0) 78 % 1.022 bar
06:30 10.0 °C (10.0) 79 % 1.022 bar
07:00 10.0 °C (10.0) 79 % 1.022 bar
07:30 10.0 °C (10.0) 78 % 1.022 bar
08:00 10.0 °C (9.0) 77 % 1.021 bar
08:30 9.4 °C (9.0) 75 % 1.021 bar
09:00 9.4 °C (9.0) 73 % 1.022 bar
09:30 9.4 °C (9.0) 75 % 1.022 bar
 
Ora Temperatura Umiditatea Presiunea
10:00 10.6 °C (10.6) 82 % 1.021 bar
10:30 12.2 °C (12.2) 93 % 1.021 bar
11:00 12.8 °C (12.8) 93 % 1.021 bar
11:30 12.8 °C (12.8) 88 % 1.021 bar
12:00 13.9 °C (13.9) 85 % 1.022 bar
12:30 14.4 °C (14.4) 78 % 1.022 bar
13:00 14.4 °C (14.4) 73 % 1.02 bar
13:30 14.4 °C (14.4) 71 % 1.019 bar
14:00 15.0 °C (15.0) 68 % 1.019 bar
14:30 15.6 °C (15.6) 68 % 1.018 bar
15:00 15.6 °C (15.6) 67 % 1.018 bar
15:30 60 °C (60.0) 66 % 0.03006 bar
16:00 14.4 °C (14.4) 68 % 1.017 bar
16:30 15.0 °C (15.0) 69 % 1.017 bar
17:00 15.0 °C (15.0) 56 % 1.016 bar
17:30 15.0 °C (15.0) 49 % 1.024 bar
18:00 14.4 °C (14.4) 51 % 1.021 bar
18:30 13.3 °C (13.3) 54 % 1.015 bar
19:00 12.8 °C (12.8) 57 % 1.014 bar
19:30 55 °C (55.0) 58 % 0.02995 bar